createdAt,value
2018-12-15T00:02:23.345Z,94963.43
2018-12-15T00:04:49.740Z,94962.84
2018-12-15T00:07:16.097Z,94961.78
2018-12-15T00:09:42.430Z,94961.55
2018-12-15T00:12:08.768Z,94975.91
2018-12-15T00:14:35.163Z,94976.28
2018-12-15T00:17:05.755Z,94975.14
2018-12-15T00:19:27.892Z,94974.39
2018-12-15T00:21:54.249Z,94960.39
2018-12-15T00:24:20.575Z,94972.77
2018-12-15T00:26:49.065Z,94964.11
2018-12-15T00:29:13.351Z,94979.66
2018-12-15T00:31:39.685Z,94973.84
2018-12-15T00:34:05.943Z,94975.80
2018-12-15T00:36:32.334Z,94965.25
2018-12-15T00:38:58.662Z,94960.24
2018-12-15T00:41:24.965Z,94960.92
2018-12-15T00:43:51.335Z,94960.94
2018-12-15T00:46:17.709Z,94955.20
2018-12-15T00:48:44.032Z,94947.86
2018-12-15T00:51:10.362Z,94945.05
2018-12-15T00:53:36.732Z,94952.75
2018-12-15T00:56:03.045Z,94946.33
2018-12-15T00:58:29.407Z,94952.75
2018-12-15T01:00:55.741Z,94945.05
2018-12-15T01:03:22.094Z,94955.33
2018-12-15T01:05:48.527Z,94934.63
2018-12-15T01:08:14.865Z,94954.50
2018-12-15T01:10:41.215Z,94951.47
2018-12-15T01:13:07.580Z,94949.45
2018-12-15T01:15:33.880Z,94941.66
2018-12-15T01:18:00.232Z,94948.30
2018-12-15T01:20:26.597Z,94954.35
2018-12-15T01:22:52.924Z,94946.77
2018-12-15T01:25:19.466Z,94953.66
2018-12-15T01:27:45.804Z,94937.17
2018-12-15T01:30:12.255Z,94944.52
2018-12-15T01:32:38.585Z,94935.77
2018-12-15T01:35:05.016Z,94925.27
2018-12-15T01:37:31.406Z,94938.24
2018-12-15T01:39:57.762Z,94935.07
2018-12-15T01:42:24.091Z,94941.25
2018-12-15T01:44:50.441Z,94939.51
2018-12-15T01:47:16.770Z,94929.56
2018-12-15T01:49:43.108Z,94917.41
2018-12-15T01:52:09.454Z,94924.34
2018-12-15T01:54:35.916Z,94922.45
2018-12-15T01:57:02.217Z,94920.25
2018-12-15T01:59:28.616Z,94926.52
2018-12-15T02:01:54.930Z,94929.19
2018-12-15T02:04:21.306Z,94927.68
2018-12-15T02:06:47.731Z,94933.64
2018-12-15T02:09:14.027Z,94916.01
2018-12-15T02:11:40.433Z,94916.01
2018-12-15T02:14:06.743Z,94920.19
2018-12-15T02:16:33.130Z,94911.79
2018-12-15T02:18:59.500Z,94912.25
2018-12-15T02:21:25.894Z,94909.31
2018-12-15T02:23:52.225Z,94907.11
2018-12-15T02:26:18.551Z,94914.45
2018-12-15T02:28:44.960Z,94908.52
2018-12-15T02:31:11.283Z,94901.95
2018-12-15T02:33:37.621Z,94908.25
2018-12-15T02:36:04.012Z,94907.58
2018-12-15T02:38:30.339Z,94907.70
2018-12-15T02:40:56.747Z,94909.91
2018-12-15T02:43:23.130Z,94908.74
2018-12-15T02:45:49.532Z,94914.80
2018-12-15T02:48:15.940Z,94905.45
2018-12-15T02:50:42.270Z,94907.92
2018-12-15T02:53:08.710Z,94905.45
2018-12-15T02:55:35.065Z,94913.15
2018-12-15T02:58:01.445Z,94900.55
2018-12-15T03:00:27.920Z,94903.80
2018-12-15T03:02:54.438Z,94886.19
2018-12-15T03:05:20.853Z,94896.58
2018-12-15T03:07:47.182Z,94894.26
2018-12-15T03:10:13.610Z,94902.78
2018-12-15T03:12:39.950Z,94901.72
2018-12-15T03:15:06.354Z,94892.00
2018-12-15T03:17:32.648Z,94906.12
2018-12-15T03:19:59.026Z,94906.25
2018-12-15T03:22:25.449Z,94906.89
2018-12-15T03:24:51.853Z,94903.22
2018-12-15T03:27:18.190Z,94904.33
2018-12-15T03:29:44.528Z,94903.69
2018-12-15T03:32:10.920Z,94914.93
2018-12-15T03:34:37.343Z,94923.58
2018-12-15T03:37:03.682Z,94916.44
2018-12-15T03:39:30.197Z,94925.33
2018-12-15T03:41:56.516Z,94917.04
2018-12-15T03:44:22.833Z,94918.96
2018-12-15T03:46:49.210Z,94911.08
2018-12-15T03:49:15.715Z,94913.87
2018-12-15T03:51:42.028Z,94915.52
2018-12-15T03:54:08.354Z,94910.28
2018-12-15T03:56:34.716Z,94911.30
2018-12-15T03:59:01.074Z,94901.63
2018-12-15T04:01:27.447Z,94909.09
2018-12-15T04:03:53.797Z,94902.68
2018-12-15T04:06:20.164Z,94906.98
2018-12-15T04:08:46.562Z,94913.16
2018-12-15T04:11:12.928Z,94902.20
2018-12-15T04:13:39.224Z,94907.06
2018-12-15T04:16:05.595Z,94915.27
2018-12-15T04:18:31.984Z,94914.66
2018-12-15T04:20:58.323Z,94912.68
2018-12-15T04:23:24.730Z,94913.91
2018-12-15T04:25:51.089Z,94912.90
2018-12-15T04:28:17.414Z,94890.71
2018-12-15T04:30:43.843Z,94909.12
2018-12-15T04:33:10.217Z,94905.75
2018-12-15T04:35:36.564Z,94900.98
2018-12-15T04:38:02.944Z,94899.92
2018-12-15T04:40:29.342Z,94910.33
2018-12-15T04:42:55.839Z,94900.06
2018-12-15T04:45:22.058Z,94895.39
2018-12-15T04:47:48.469Z,94896.41
2018-12-15T04:50:14.833Z,94892.70
2018-12-15T04:52:41.175Z,94900.77
2018-12-15T04:55:07.551Z,94902.23
2018-12-15T04:57:33.949Z,94903.40
2018-12-15T05:00:00.320Z,94899.19
2018-12-15T05:02:26.678Z,94901.63
2018-12-15T05:04:53.002Z,94893.72
2018-12-15T05:07:19.415Z,94895.84
2018-12-15T05:09:45.759Z,94897.81
2018-12-15T05:12:12.138Z,94903.40
2018-12-15T05:14:38.466Z,94903.61
2018-12-15T05:17:04.909Z,94911.68
2018-12-15T05:19:31.293Z,94906.86
2018-12-15T05:21:57.696Z,94902.23
2018-12-15T05:24:24.012Z,94910.61
2018-12-15T05:26:50.364Z,94903.73
2018-12-15T05:29:16.731Z,94913.27
2018-12-15T05:31:43.121Z,94905.48
2018-12-15T05:34:09.520Z,94911.28
2018-12-15T05:36:35.864Z,94911.53
2018-12-15T05:39:02.282Z,94906.86
2018-12-15T05:41:28.612Z,94906.86
2018-12-15T05:43:54.951Z,94907.31
2018-12-15T05:46:21.344Z,94907.20
2018-12-15T05:48:47.641Z,94903.92
2018-12-15T05:51:14.011Z,94905.33
2018-12-15T05:53:40.394Z,94899.12
2018-12-15T05:56:06.801Z,94901.94
2018-12-15T05:58:33.167Z,94912.11
2018-12-15T06:00:59.510Z,94910.77
2018-12-15T06:03:25.856Z,94911.05
2018-12-15T06:05:52.236Z,94903.22
2018-12-15T06:08:18.582Z,94911.50
2018-12-15T06:10:44.920Z,94914.89
2018-12-15T06:13:11.302Z,94913.95
2018-12-15T06:15:37.683Z,94910.77
2018-12-15T06:18:03.999Z,94905.55
2018-12-15T06:20:30.385Z,94912.05
2018-12-15T06:22:56.718Z,94912.27
2018-12-15T06:25:23.142Z,94904.94
2018-12-15T06:27:49.438Z,94906.22
2018-12-15T06:30:15.832Z,94904.97
2018-12-15T06:32:42.176Z,94915.23
2018-12-15T06:35:08.524Z,94919.14
2018-12-15T06:37:34.880Z,94921.98
2018-12-15T06:40:01.238Z,94919.97
2018-12-15T06:42:27.590Z,94925.34
2018-12-15T06:44:53.949Z,94928.27
2018-12-15T06:47:20.338Z,94932.95
2018-12-15T06:49:46.740Z,94932.49
2018-12-15T06:52:13.090Z,94934.20
2018-12-15T06:54:39.460Z,94938.17
2018-12-15T06:57:05.828Z,94935.61
2018-12-15T06:59:32.201Z,94936.40
2018-12-15T07:01:58.537Z,94937.26
2018-12-15T07:04:24.916Z,94936.80
2018-12-15T07:06:51.230Z,94932.58
2018-12-15T07:09:17.559Z,94934.23
2018-12-15T07:11:43.966Z,94933.41
2018-12-15T07:14:10.358Z,94939.95
2018-12-15T07:16:36.732Z,94953.11
2018-12-15T07:19:03.123Z,94954.77
2018-12-15T07:21:29.496Z,94955.80
2018-12-15T07:23:55.883Z,94949.72
2018-12-15T07:26:22.209Z,94958.37
2018-12-15T07:28:48.612Z,94961.17
2018-12-15T07:31:14.950Z,94960.35
2018-12-15T07:33:41.272Z,94962.30
2018-12-15T07:36:07.604Z,94963.66
2018-12-15T07:38:33.936Z,94968.66
2018-12-15T07:41:00.321Z,94967.84
2018-12-15T07:43:26.708Z,94965.48
2018-12-15T07:45:53.047Z,94970.07
2018-12-15T07:48:19.488Z,94965.23
2018-12-15T07:50:45.761Z,94967.69
2018-12-15T07:53:12.093Z,94963.66
2018-12-15T07:55:38.444Z,94970.25
2018-12-15T07:58:04.820Z,94969.58
2018-12-15T08:00:31.200Z,94974.05
2018-12-15T08:02:57.538Z,94973.22
2018-12-15T08:05:23.884Z,94980.83
2018-12-15T08:07:50.322Z,94984.38
2018-12-15T08:10:16.715Z,94986.45
2018-12-15T08:12:43.115Z,94993.50
2018-12-15T08:15:09.455Z,94992.84
2018-12-15T08:17:35.842Z,94991.03
2018-12-15T08:20:02.185Z,94993.94
2018-12-15T08:22:28.604Z,94996.66
2018-12-15T08:24:55.030Z,94993.18
2018-12-15T08:27:21.431Z,94987.59
2018-12-15T08:29:47.780Z,94984.08
2018-12-15T08:32:14.167Z,94990.77
2018-12-15T08:34:40.504Z,94985.41
2018-12-15T08:37:06.887Z,94985.87
2018-12-15T08:39:33.270Z,94988.23
2018-12-15T08:41:59.659Z,94987.77
2018-12-15T08:44:26.037Z,94989.14
2018-12-15T08:46:52.370Z,94990.89
2018-12-15T08:49:18.766Z,94986.95
2018-12-15T08:51:45.146Z,94992.17
2018-12-15T08:54:11.494Z,94996.63
2018-12-15T08:56:37.851Z,94991.23
2018-12-15T08:59:04.242Z,94975.70
2018-12-15T09:01:30.585Z,94977.13
2018-12-15T09:03:56.916Z,94977.59
2018-12-15T09:06:23.273Z,94968.60
2018-12-15T09:08:49.669Z,94965.59
2018-12-15T09:11:15.999Z,94967.70
2018-12-15T09:13:42.411Z,94973.81
2018-12-15T09:16:08.703Z,94962.95
2018-12-15T09:18:35.142Z,94962.95
2018-12-15T09:21:01.596Z,94967.42
2018-12-15T09:23:27.992Z,94965.80
2018-12-15T09:25:54.361Z,94962.41
2018-12-15T09:28:20.694Z,94957.51
2018-12-15T09:30:47.101Z,94947.37
2018-12-15T09:33:13.393Z,94946.20
2018-12-15T09:35:39.782Z,94951.61
2018-12-15T09:38:06.224Z,94946.11
2018-12-15T09:40:32.625Z,94938.50
2018-12-15T09:42:58.970Z,94941.94
2018-12-15T09:45:25.298Z,94937.22
2018-12-15T09:47:51.671Z,94937.50
2018-12-15T09:50:18.019Z,94936.80
2018-12-15T09:52:44.395Z,94935.39
2018-12-15T09:55:10.770Z,94926.40
2018-12-15T09:57:37.121Z,94923.47
2018-12-15T10:00:03.453Z,94925.24
2018-12-15T10:02:29.807Z,94927.92
2018-12-15T10:04:56.169Z,94928.38
2018-12-15T10:07:22.566Z,94931.82
2018-12-15T10:09:48.942Z,94924.80
2018-12-15T10:12:15.274Z,94920.12
2018-12-15T10:14:41.778Z,94919.66
2018-12-15T10:17:08.978Z,94915.90
2018-12-15T10:19:34.558Z,94919.30
2018-12-15T10:22:00.977Z,94930.39
2018-12-15T10:24:27.316Z,94929.44
2018-12-15T10:26:53.726Z,94921.88
2018-12-15T10:29:20.089Z,94927.97
2018-12-15T10:31:46.441Z,94927.23
2018-12-15T10:34:12.813Z,94932.37
2018-12-15T10:36:39.151Z,94936.73
2018-12-15T10:39:05.575Z,94920.81
2018-12-15T10:41:31.869Z,94921.73
2018-12-15T10:43:58.293Z,94920.37
2018-12-15T10:46:24.631Z,94913.61
2018-12-15T10:48:50.956Z,94898.19
2018-12-15T10:51:17.350Z,94899.81
2018-12-15T10:53:43.691Z,94890.12
2018-12-15T10:56:10.008Z,94874.80
2018-12-15T10:58:36.349Z,94882.87
2018-12-15T11:01:02.682Z,94871.30
2018-12-15T11:03:29.018Z,94869.56
2018-12-15T11:05:55.350Z,94854.14
2018-12-15T11:08:21.740Z,94845.52
2018-12-15T11:10:48.083Z,94837.08
2018-12-15T11:13:14.463Z,94844.09
2018-12-15T11:15:40.797Z,94838.72
2018-12-15T11:18:07.293Z,94831.11
2018-12-15T11:20:33.662Z,94834.73
2018-12-15T11:22:59.970Z,94825.05
2018-12-15T11:25:26.361Z,94818.53
2018-12-15T11:27:52.695Z,94828.22
2018-12-15T11:30:19.077Z,94820.84
2018-12-15T11:32:45.407Z,94823.90
2018-12-15T11:35:11.782Z,94811.16
2018-12-15T11:37:38.120Z,94809.27
2018-12-15T11:40:04.515Z,94808.94
2018-12-15T11:42:30.858Z,94813.39
2018-12-15T11:44:57.189Z,94816.88
2018-12-15T11:47:23.547Z,94822.38
2018-12-15T11:49:49.980Z,94817.48
2018-12-15T11:52:16.342Z,94811.88
2018-12-15T11:54:42.694Z,94810.59
2018-12-15T11:57:09.027Z,94807.76
2018-12-15T11:59:35.381Z,94813.85
2018-12-15T12:02:01.797Z,94803.44
2018-12-15T12:04:28.224Z,94805.55
2018-12-15T12:06:54.574Z,94790.59
2018-12-15T12:09:20.903Z,94784.89
2018-12-15T12:11:47.223Z,94782.66
2018-12-15T12:14:13.571Z,94781.27
2018-12-15T12:16:39.963Z,94789.44
2018-12-15T12:19:06.286Z,94791.05
2018-12-15T12:21:32.642Z,94786.17
2018-12-15T12:23:59.072Z,94784.89
2018-12-15T12:26:25.411Z,94788.39
2018-12-15T12:28:51.782Z,94784.17
2018-12-15T12:31:18.236Z,94773.89
2018-12-15T12:33:44.687Z,94785.22
2018-12-15T12:36:11.083Z,94790.72
2018-12-15T12:38:37.425Z,94786.41
2018-12-15T12:41:03.815Z,94781.27
2018-12-15T12:43:30.145Z,94778.47
2018-12-15T12:45:56.504Z,94780.58
2018-12-15T12:48:22.902Z,94789.80
2018-12-15T12:50:49.213Z,94787.80
2018-12-15T12:53:15.618Z,94791.09
2018-12-15T12:55:41.950Z,94791.42
2018-12-15T12:58:08.387Z,94791.19
2018-12-15T13:00:34.784Z,94791.19
2018-12-15T13:03:01.166Z,94796.79
2018-12-15T13:05:27.583Z,94789.20
2018-12-15T13:07:53.935Z,94793.66
2018-12-15T13:10:20.286Z,94795.63
2018-12-15T13:12:46.636Z,94796.69
2018-12-15T13:15:12.991Z,94795.05
2018-12-15T13:17:39.312Z,94788.61
2018-12-15T13:20:05.709Z,94792.47
2018-12-15T13:22:32.167Z,94812.34
2018-12-15T13:24:58.583Z,94809.41
2018-12-15T13:27:24.975Z,94805.22
2018-12-15T13:29:51.306Z,94794.12
2018-12-15T13:32:17.654Z,94800.08
2018-12-15T13:34:44.068Z,94788.75
2018-12-15T13:37:10.413Z,94795.86
2018-12-15T13:39:36.737Z,94802.65
2018-12-15T13:42:03.086Z,94815.83
2018-12-15T13:44:29.430Z,94811.28
2018-12-15T13:46:55.782Z,94803.44
2018-12-15T13:49:22.175Z,94805.68
2018-12-15T13:51:48.506Z,94809.87
2018-12-15T13:54:14.837Z,94802.65
2018-12-15T13:56:41.221Z,94805.68
2018-12-15T13:59:07.530Z,94806.14
2018-12-15T14:01:33.918Z,94806.97
2018-12-15T14:04:00.247Z,94808.94
2018-12-15T14:06:26.672Z,94814.91
2018-12-15T14:08:53.095Z,94818.30
2018-12-15T14:11:19.474Z,94815.01
2018-12-15T14:13:45.875Z,94813.72
2018-12-15T14:16:12.219Z,94815.23
2018-12-15T14:18:38.598Z,94807.66
2018-12-15T14:21:04.987Z,94811.97
2018-12-15T14:23:31.418Z,94806.38
2018-12-15T14:25:57.713Z,94806.38
2018-12-15T14:28:24.037Z,94794.68
2018-12-15T14:30:50.382Z,94783.12
2018-12-15T14:33:16.704Z,94789.64
2018-12-15T14:35:43.045Z,94792.44
2018-12-15T14:38:09.447Z,94803.41
2018-12-15T14:40:35.874Z,94807.71
2018-12-15T14:43:02.227Z,94804.55
2018-12-15T14:45:28.588Z,94794.86
2018-12-15T14:47:54.956Z,94784.22
2018-12-15T14:50:23.438Z,94784.22
2018-12-15T14:52:47.694Z,94784.58
2018-12-15T14:55:14.080Z,94789.58
2018-12-15T14:57:40.415Z,94784.81
2018-12-15T15:00:06.778Z,94785.13
2018-12-15T15:02:33.145Z,94783.25
2018-12-15T15:04:59.503Z,94788.84
2018-12-15T15:07:25.860Z,94783.25
2018-12-15T15:09:52.246Z,94783.94
2018-12-15T15:12:18.637Z,94782.78
2018-12-15T15:14:44.918Z,94779.03
2018-12-15T15:17:11.247Z,94776.00
2018-12-15T15:19:37.592Z,94769.31
2018-12-15T15:22:03.929Z,94766.97
2018-12-15T15:24:30.263Z,94770.00
2018-12-15T15:26:56.632Z,94769.98
2018-12-15T15:29:22.997Z,94768.48
2018-12-15T15:31:49.349Z,94759.13
2018-12-15T15:34:15.676Z,94764.39
2018-12-15T15:36:42.061Z,94765.55
2018-12-15T15:39:08.444Z,94773.84
2018-12-15T15:41:34.794Z,94772.28
2018-12-15T15:44:01.179Z,94764.48
2018-12-15T15:46:27.514Z,94767.30
2018-12-15T15:48:53.872Z,94766.92
2018-12-15T15:51:20.273Z,94763.53
2018-12-15T15:53:46.613Z,94758.89
2018-12-15T15:56:12.967Z,94763.53
2018-12-15T15:58:39.340Z,94763.88
2018-12-15T16:01:06.047Z,94763.53
2018-12-15T16:03:32.309Z,94765.77
2018-12-15T16:05:58.659Z,94768.55
2018-12-15T16:08:25.038Z,94770.63
2018-12-15T16:10:51.406Z,94767.36
2018-12-15T16:13:17.709Z,94765.72
2018-12-15T16:15:44.046Z,94764.33
2018-12-15T16:18:10.380Z,94764.80
2018-12-15T16:20:43.190Z,94763.28
2018-12-15T16:23:06.006Z,94762.00
2018-12-15T16:25:32.402Z,94762.67
2018-12-15T16:27:58.740Z,94756.63
2018-12-15T16:30:25.069Z,94757.91
2018-12-15T16:32:51.463Z,94748.92
2018-12-15T16:35:17.762Z,94751.49
2018-12-15T16:37:44.124Z,94759.52
2018-12-15T16:40:10.467Z,94759.66
2018-12-15T16:42:36.816Z,94763.27
2018-12-15T16:45:03.180Z,94765.00
2018-12-15T16:47:29.515Z,94768.63
2018-12-15T16:49:55.919Z,94766.16
2018-12-15T16:52:22.247Z,94752.27
2018-12-15T16:54:48.590Z,94746.44
2018-12-15T16:57:14.981Z,94751.35
2018-12-15T16:59:41.334Z,94754.50
2018-12-15T17:02:07.677Z,94768.48
2018-12-15T17:04:34.013Z,94765.10
2018-12-15T17:07:00.349Z,94768.71
2018-12-15T17:09:26.677Z,94773.38
2018-12-15T17:11:53.062Z,94768.02
2018-12-15T17:14:19.619Z,94772.10
2018-12-15T17:16:46.125Z,94775.95
2018-12-15T17:19:12.405Z,94770.36
2018-12-15T17:21:38.797Z,94763.95
2018-12-15T17:24:05.154Z,94758.08
2018-12-15T17:26:31.552Z,94762.99
2018-12-15T17:28:58.026Z,94765.91
2018-12-15T17:31:24.373Z,94766.37
2018-12-15T17:33:50.703Z,94757.25
2018-12-15T17:36:17.072Z,94754.45
2018-12-15T17:38:43.436Z,94758.89
2018-12-15T17:41:09.782Z,94745.60
2018-12-15T17:43:36.163Z,94739.65
2018-12-15T17:46:02.518Z,94734.97
2018-12-15T17:48:28.962Z,94733.69
2018-12-15T17:50:55.291Z,94733.81
2018-12-15T17:53:21.611Z,94739.50
2018-12-15T17:55:47.967Z,94746.28
2018-12-15T17:58:14.829Z,94764.24
2018-12-15T18:00:40.713Z,94769.73
2018-12-15T18:03:07.075Z,94773.22
2018-12-15T18:05:33.414Z,94770.89
2018-12-15T18:07:59.762Z,94764.34
2018-12-15T18:10:26.130Z,94763.64
2018-12-15T18:12:52.471Z,94767.48
2018-12-15T18:15:18.815Z,94760.70
2018-12-15T18:17:45.150Z,94753.16
2018-12-15T18:20:11.519Z,94753.84
2018-12-15T18:22:37.894Z,94754.75
2018-12-15T18:25:04.359Z,94752.92
2018-12-15T18:27:30.761Z,94756.31
2018-12-15T18:29:57.122Z,94762.94
2018-12-15T18:32:23.454Z,94763.28
2018-12-15T18:34:49.791Z,94773.45
2018-12-15T18:37:16.160Z,94774.82
2018-12-15T18:39:42.539Z,94769.30
2018-12-15T18:42:10.992Z,94773.30
2018-12-15T18:44:35.215Z,94779.25
2018-12-15T18:47:01.609Z,94768.97
2018-12-15T18:49:27.948Z,94767.42
2018-12-15T18:51:54.288Z,94759.87
2018-12-15T18:54:20.656Z,94765.60
2018-12-15T18:56:47.162Z,94758.34
2018-12-15T18:59:13.512Z,94750.65
2018-12-15T19:01:39.851Z,94748.78
2018-12-15T19:04:06.253Z,94745.52
2018-12-15T19:06:32.601Z,94749.83
2018-12-15T19:09:04.002Z,94747.26
2018-12-15T19:11:25.328Z,94747.26
2018-12-15T19:13:51.776Z,94740.97
2018-12-15T19:16:18.224Z,94749.13
2018-12-15T19:18:44.577Z,94762.19
2018-12-15T19:21:10.918Z,94750.41
2018-12-15T19:23:37.264Z,94748.06
2018-12-15T19:26:03.631Z,94755.27
2018-12-15T19:28:29.974Z,94760.21
2018-12-15T19:30:56.360Z,94752.83
2018-12-15T19:33:22.646Z,94755.63
2018-12-15T19:35:48.995Z,94744.45
2018-12-15T19:38:15.405Z,94750.14
2018-12-15T19:40:41.761Z,94745.50
2018-12-15T19:43:08.130Z,94742.81
2018-12-15T19:45:34.457Z,94745.83
2018-12-15T19:48:00.793Z,94735.33
2018-12-15T19:50:27.159Z,94735.19
2018-12-15T19:52:53.530Z,94728.47
2018-12-15T19:55:20.022Z,94730.78
2018-12-15T19:57:46.552Z,94729.14
2018-12-15T20:00:12.890Z,94737.08
2018-12-15T20:02:39.244Z,94743.09
2018-12-15T20:05:05.620Z,94741.87
2018-12-15T20:07:32.063Z,94730.52
2018-12-15T20:09:58.363Z,94730.19
2018-12-15T20:12:24.736Z,94724.38
2018-12-15T20:14:51.107Z,94722.83
2018-12-15T20:17:17.438Z,94724.25
2018-12-15T20:19:43.921Z,94726.58
2018-12-15T20:22:10.240Z,94732.63
2018-12-15T20:24:36.571Z,94732.84
2018-12-15T20:27:02.946Z,94727.25
2018-12-15T20:29:29.299Z,94744.98
2018-12-15T20:31:55.658Z,94744.29
2018-12-15T20:34:22.121Z,94736.23
2018-12-15T20:36:48.522Z,94745.45
2018-12-15T20:39:14.858Z,94741.48
2018-12-15T20:41:41.233Z,94740.42
2018-12-15T20:44:07.662Z,94748.58
2018-12-15T20:46:34.065Z,94751.96
2018-12-15T20:49:00.403Z,94747.16
2018-12-15T20:51:26.849Z,94745.88
2018-12-15T20:53:53.247Z,94736.45
2018-12-15T20:56:19.584Z,94727.23
2018-12-15T20:58:45.940Z,94740.52
2018-12-15T21:01:12.366Z,94734.92
2018-12-15T21:03:38.652Z,94720.82
2018-12-15T21:06:05.051Z,94717.44
2018-12-15T21:08:31.387Z,94722.56
2018-12-15T21:10:57.770Z,94729.43
2018-12-15T21:13:24.104Z,94735.07
2018-12-15T21:15:50.488Z,94726.19
2018-12-15T21:18:17.132Z,94721.64
2018-12-15T21:20:43.474Z,94733.06
2018-12-15T21:23:09.866Z,94732.36
2018-12-15T21:25:36.198Z,94726.63
2018-12-15T21:28:02.577Z,94732.23
2018-12-15T21:30:28.975Z,94717.65
2018-12-15T21:32:55.317Z,94701.20
2018-12-15T21:35:21.810Z,94707.25
2018-12-15T21:37:48.072Z,94705.75
2018-12-15T21:40:14.400Z,94704.70
2018-12-15T21:42:40.765Z,94706.11
2018-12-15T21:45:07.112Z,94693.98
2018-12-15T21:47:33.539Z,94686.97
2018-12-15T21:49:59.911Z,94694.11
2018-12-15T21:52:26.204Z,94707.39
2018-12-15T21:54:52.591Z,94694.66
2018-12-15T21:57:18.972Z,94695.49
2018-12-15T21:59:45.362Z,94690.58
2018-12-15T22:02:11.692Z,94700.30
2018-12-15T22:04:38.077Z,94697.72
2018-12-15T22:07:04.529Z,94702.27
2018-12-15T22:09:30.897Z,94695.73
2018-12-15T22:11:57.302Z,94689.54
2018-12-15T22:14:23.632Z,94681.97
2018-12-15T22:16:50.007Z,94674.64
2018-12-15T22:19:16.409Z,94669.16
2018-12-15T22:21:42.805Z,94667.70
2018-12-15T22:24:09.215Z,94669.98
2018-12-15T22:26:35.584Z,94671.86
2018-12-15T22:29:01.979Z,94680.05
2018-12-15T22:31:28.450Z,94685.55
2018-12-15T22:33:54.890Z,94679.50
2018-12-15T22:36:21.283Z,94670.07
2018-12-15T22:38:47.638Z,94668.06
2018-12-15T22:41:13.980Z,94671.35
2018-12-15T22:43:40.352Z,94661.09
2018-12-15T22:46:06.661Z,94667.60
2018-12-15T22:48:33.154Z,94667.60
2018-12-15T22:50:59.525Z,94676.57
2018-12-15T22:53:25.941Z,94676.20
2018-12-15T22:55:52.273Z,94678.31
2018-12-15T22:58:18.593Z,94670.63
2018-12-15T23:00:45.016Z,94675.20
2018-12-15T23:03:11.403Z,94668.93
2018-12-15T23:05:37.862Z,94658.14
2018-12-15T23:08:04.193Z,94650.94
2018-12-15T23:10:30.578Z,94653.95
2018-12-15T23:12:56.908Z,94654.88
2018-12-15T23:15:23.292Z,94655.98
2018-12-15T23:17:49.737Z,94653.95
2018-12-15T23:20:16.168Z,94657.98
2018-12-15T23:22:42.503Z,94661.83
2018-12-15T23:25:08.888Z,94662.84
2018-12-15T23:27:35.263Z,94664.84
2018-12-15T23:30:01.648Z,94658.14
2018-12-15T23:32:27.960Z,94652.58
2018-12-15T23:34:54.303Z,94657.70
2018-12-15T23:37:20.736Z,94656.52
2018-12-15T23:39:47.099Z,94654.69
2018-12-15T23:42:13.425Z,94654.78
2018-12-15T23:44:39.802Z,94648.83
2018-12-15T23:47:06.131Z,94644.98
2018-12-15T23:49:32.524Z,94642.75
2018-12-15T23:51:58.887Z,94642.33
2018-12-15T23:54:25.288Z,94645.80
2018-12-15T23:56:51.637Z,94644.80
2018-12-15T23:59:18.080Z,94650.62
